sensor_id;sensor_type;location;lat;lon;timestamp;pressure;altitude;pressure_sealevel;temperature;humidity
38038;BME280;23843;51.320;12.340;2023-05-09T00:00:51;101005.09;;;9.91;98.03
38038;BME280;23843;51.320;12.340;2023-05-09T00:03:17;101004.38;;;9.88;97.95
38038;BME280;23843;51.320;12.340;2023-05-09T00:05:43;101009.75;;;9.84;96.46
38038;BME280;23843;51.320;12.340;2023-05-09T00:08:11;101001.94;;;9.81;97.18
38038;BME280;23843;51.320;12.340;2023-05-09T00:10:36;101001.94;;;9.81;96.21
38038;BME280;23843;51.320;12.340;2023-05-09T00:13:02;101006.63;;;9.75;100.00
38038;BME280;23843;51.320;12.340;2023-05-09T00:15:27;101005.91;;;9.71;97.77
38038;BME280;23843;51.320;12.340;2023-05-09T00:17:54;101002.44;;;9.69;93.74
38038;BME280;23843;51.320;12.340;2023-05-09T00:20:20;101004.41;;;9.64;98.39
38038;BME280;23843;51.320;12.340;2023-05-09T00:22:45;101001.81;;;9.62;98.36
38038;BME280;23843;51.320;12.340;2023-05-09T00:25:11;100994.75;;;9.63;97.97
38038;BME280;23843;51.320;12.340;2023-05-09T00:27:36;100992.22;;;9.60;95.57
38038;BME280;23843;51.320;12.340;2023-05-09T00:30:05;100990.75;;;9.53;99.31
38038;BME280;23843;51.320;12.340;2023-05-09T00:32:31;100986.38;;;9.52;100.00
38038;BME280;23843;51.320;12.340;2023-05-09T00:34:58;100983.06;;;9.47;100.00
38038;BME280;23843;51.320;12.340;2023-05-09T00:37:25;100980.44;;;9.47;99.12
38038;BME280;23843;51.320;12.340;2023-05-09T00:39:51;100985.94;;;9.40;100.00
38038;BME280;23843;51.320;12.340;2023-05-09T00:42:16;100984.09;;;9.42;99.99
38038;BME280;23843;51.320;12.340;2023-05-09T00:44:42;100980.66;;;9.40;98.92
38038;BME280;23843;51.320;12.340;2023-05-09T00:47:07;100978.13;;;9.37;99.42
38038;BME280;23843;51.320;12.340;2023-05-09T00:49:33;100988.03;;;9.32;99.38
38038;BME280;23843;51.320;12.340;2023-05-09T00:52:01;100984.59;;;9.30;100.00
38038;BME280;23843;51.320;12.340;2023-05-09T00:54:27;100976.78;;;9.27;98.95
38038;BME280;23843;51.320;12.340;2023-05-09T00:56:52;100975.84;;;9.28;98.10
38038;BME280;23843;51.320;12.340;2023-05-09T00:59:18;100965.44;;;9.24;97.88
38038;BME280;23843;51.320;12.340;2023-05-09T01:01:44;100976.94;;;9.23;99.26
38038;BME280;23843;51.320;12.340;2023-05-09T01:04:10;100970.03;;;9.18;99.26
38038;BME280;23843;51.320;12.340;2023-05-09T01:06:37;100969.38;;;9.13;100.00
38038;BME280;23843;51.320;12.340;2023-05-09T01:09:14;100964.88;;;9.15;96.39
38038;BME280;23843;51.320;12.340;2023-05-09T01:11:44;100963.94;;;9.16;96.68
38038;BME280;23843;51.320;12.340;2023-05-09T01:14:18;100958.56;;;9.19;95.60
38038;BME280;23843;51.320;12.340;2023-05-09T01:16:55;100958.84;;;9.12;97.54
38038;BME280;23843;51.320;12.340;2023-05-09T01:19:35;100962.53;;;9.08;99.37
38038;BME280;23843;51.320;12.340;2023-05-09T01:22:09;100956.44;;;9.06;95.98
38038;BME280;23843;51.320;12.340;2023-05-09T01:24:54;100964.56;;;9.01;96.98
38038;BME280;23843;51.320;12.340;2023-05-09T01:27:38;100954.84;;;9.02;93.48
38038;BME280;23843;51.320;12.340;2023-05-09T01:30:09;100954.91;;;9.00;96.40
38038;BME280;23843;51.320;12.340;2023-05-09T01:32:37;100954.28;;;8.93;96.79
38038;BME280;23843;51.320;12.340;2023-05-09T01:35:04;100947.38;;;8.89;95.65
38038;BME280;23843;51.320;12.340;2023-05-09T01:37:32;100950.09;;;8.88;95.12
38038;BME280;23843;51.320;12.340;2023-05-09T01:40:00;100946.63;;;8.86;94.31
38038;BME280;23843;51.320;12.340;2023-05-09T01:42:32;100947.63;;;8.83;94.27
38038;BME280;23843;51.320;12.340;2023-05-09T01:44:59;100942.44;;;8.80;96.30
38038;BME280;23843;51.320;12.340;2023-05-09T01:47:26;100947.50;;;8.86;92.80
38038;BME280;23843;51.320;12.340;2023-05-09T01:49:52;100951.16;;;8.82;94.73
38038;BME280;23843;51.320;12.340;2023-05-09T01:52:20;100944.97;;;8.83;93.40
38038;BME280;23843;51.320;12.340;2023-05-09T01:54:49;100952.13;;;8.79;93.21
38038;BME280;23843;51.320;12.340;2023-05-09T01:57:17;100950.53;;;8.75;94.55
38038;BME280;23843;51.320;12.340;2023-05-09T01:59:45;100943.41;;;8.77;92.81
38038;BME280;23843;51.320;12.340;2023-05-09T02:02:11;100943.56;;;8.73;93.08
38038;BME280;23843;51.320;12.340;2023-05-09T02:04:40;100939.22;;;8.72;92.52
38038;BME280;23843;51.320;12.340;2023-05-09T02:07:07;100940.31;;;8.66;94.79
38038;BME280;23843;51.320;12.340;2023-05-09T02:09:33;100934.34;;;8.61;94.44
38038;BME280;23843;51.320;12.340;2023-05-09T02:12:01;100930.72;;;8.64;92.49
38038;BME280;23843;51.320;12.340;2023-05-09T02:14:26;100926.41;;;8.61;93.10
38038;BME280;23843;51.320;12.340;2023-05-09T02:16:52;100922.00;;;8.62;92.97
38038;BME280;23843;51.320;12.340;2023-05-09T02:19:18;100922.84;;;8.62;92.15
38038;BME280;23843;51.320;12.340;2023-05-09T02:21:44;100929.22;;;8.56;93.86
38038;BME280;23843;51.320;12.340;2023-05-09T02:24:10;100929.44;;;8.50;95.18
38038;BME280;23843;51.320;12.340;2023-05-09T02:26:36;100925.91;;;8.51;94.03
38038;BME280;23843;51.320;12.340;2023-05-09T02:29:04;100925.09;;;8.49;94.41
38038;BME280;23843;51.320;12.340;2023-05-09T02:31:30;100924.38;;;8.44;94.57
38038;BME280;23843;51.320;12.340;2023-05-09T02:33:57;100920.13;;;8.40;94.03
38038;BME280;23843;51.320;12.340;2023-05-09T02:36:23;100924.56;;;8.40;92.59
38038;BME280;23843;51.320;12.340;2023-05-09T02:38:50;100925.41;;;8.39;94.05
38038;BME280;23843;51.320;12.340;2023-05-09T02:41:16;100921.13;;;8.36;94.60
38038;BME280;23843;51.320;12.340;2023-05-09T02:43:42;100918.47;;;8.36;93.18
38038;BME280;23843;51.320;12.340;2023-05-09T02:46:08;100917.69;;;8.34;93.25
38038;BME280;23843;51.320;12.340;2023-05-09T02:48:33;100919.53;;;8.32;92.71
38038;BME280;23843;51.320;12.340;2023-05-09T02:50:59;100922.09;;;8.33;94.79
38038;BME280;23843;51.320;12.340;2023-05-09T02:53:24;100913.31;;;8.33;92.51
38038;BME280;23843;51.320;12.340;2023-05-09T02:55:52;100923.28;;;8.25;92.43
38038;BME280;23843;51.320;12.340;2023-05-09T02:58:18;100921.00;;;8.14;95.07
38038;BME280;23843;51.320;12.340;2023-05-09T03:00:46;100920.00;;;8.18;93.91
38038;BME280;23843;51.320;12.340;2023-05-09T03:03:11;100920.94;;;8.17;94.17
38038;BME280;23843;51.320;12.340;2023-05-09T03:05:37;100922.53;;;8.21;93.19
38038;BME280;23843;51.320;12.340;2023-05-09T03:08:03;100919.19;;;8.16;93.64
38038;BME280;23843;51.320;12.340;2023-05-09T03:10:29;100919.84;;;8.23;91.04
38038;BME280;23843;51.320;12.340;2023-05-09T03:12:56;100914.53;;;8.24;90.43
38038;BME280;23843;51.320;12.340;2023-05-09T03:15:22;100918.22;;;8.19;91.53
38038;BME280;23843;51.320;12.340;2023-05-09T03:17:48;100918.50;;;8.11;93.96
38038;BME280;23843;51.320;12.340;2023-05-09T03:20:16;100908.03;;;8.08;94.55
38038;BME280;23843;51.320;12.340;2023-05-09T03:22:42;100911.69;;;8.04;94.60
38038;BME280;23843;51.320;12.340;2023-05-09T03:25:07;100908.03;;;8.08;92.80
38038;BME280;23843;51.320;12.340;2023-05-09T03:27:33;100908.03;;;8.08;91.17
38038;BME280;23843;51.320;12.340;2023-05-09T03:32:25;100909.13;;;8.02;93.85
38038;BME280;23843;51.320;12.340;2023-05-09T03:34:51;100912.78;;;7.98;93.50
38038;BME280;23843;51.320;12.340;2023-05-09T03:37:16;100911.97;;;7.96;93.93
38038;BME280;23843;51.320;12.340;2023-05-09T03:39:42;100911.00;;;7.99;92.68
38038;BME280;23843;51.320;12.340;2023-05-09T03:44:47;100906.50;;;8.02;94.85
38038;BME280;23843;51.320;12.340;2023-05-09T03:47:14;100903.13;;;7.97;94.36
38038;BME280;23843;51.320;12.340;2023-05-09T03:49:40;100904.00;;;7.98;94.59
38038;BME280;23843;51.320;12.340;2023-05-09T03:52:05;100904.97;;;7.95;95.36
38038;BME280;23843;51.320;12.340;2023-05-09T03:54:32;100904.97;;;7.95;95.56
38038;BME280;23843;51.320;12.340;2023-05-09T03:56:58;100904.09;;;7.94;95.21
38038;BME280;23843;51.320;12.340;2023-05-09T03:59:23;100902.16;;;8.00;94.93
38038;BME280;23843;51.320;12.340;2023-05-09T04:01:49;100908.16;;;8.05;94.54
38038;BME280;23843;51.320;12.340;2023-05-09T04:04:19;100904.63;;;8.04;94.14
38038;BME280;23843;51.320;12.340;2023-05-09T04:06:44;100905.41;;;8.08;93.29
38038;BME280;23843;51.320;12.340;2023-05-09T04:09:09;100907.88;;;8.12;94.49
38038;BME280;23843;51.320;12.340;2023-05-09T04:11:35;100909.47;;;8.17;93.78
38038;BME280;23843;51.320;12.340;2023-05-09T04:14:00;100903.00;;;8.27;91.43
38038;BME280;23843;51.320;12.340;2023-05-09T04:16:26;100903.56;;;8.35;91.95
38038;BME280;23843;51.320;12.340;2023-05-09T04:18:51;100905.66;;;8.50;91.40
38038;BME280;23843;51.320;12.340;2023-05-09T04:21:18;100914.13;;;8.60;90.07
38038;BME280;23843;51.320;12.340;2023-05-09T04:23:44;100911.78;;;8.76;90.24
38038;BME280;23843;51.320;12.340;2023-05-09T04:26:14;100904.06;;;8.93;88.40
38038;BME280;23843;51.320;12.340;2023-05-09T04:28:40;100905.72;;;9.62;86.63
38038;BME280;23843;51.320;12.340;2023-05-09T04:31:05;100900.75;;;10.38;80.60
38038;BME280;23843;51.320;12.340;2023-05-09T04:33:31;100885.63;;;10.79;76.65
38038;BME280;23843;51.320;12.340;2023-05-09T04:35:56;100888.41;;;10.57;75.48
38038;BME280;23843;51.320;12.340;2023-05-09T04:40:52;100885.19;;;11.07;73.40
38038;BME280;23843;51.320;12.340;2023-05-09T04:43:17;100881.03;;;11.38;71.23
38038;BME280;23843;51.320;12.340;2023-05-09T04:45:43;100887.75;;;11.45;69.60
38038;BME280;23843;51.320;12.340;2023-05-09T04:48:09;100885.75;;;11.68;68.80
38038;BME280;23843;51.320;12.340;2023-05-09T04:50:34;100889.72;;;11.95;68.95
38038;BME280;23843;51.320;12.340;2023-05-09T04:53:00;100885.66;;;12.06;64.83
38038;BME280;23843;51.320;12.340;2023-05-09T04:55:26;100879.38;;;12.24;63.89
38038;BME280;23843;51.320;12.340;2023-05-09T04:57:52;100876.81;;;12.38;61.98
38038;BME280;23843;51.320;12.340;2023-05-09T05:00:18;100878.69;;;12.54;60.52
38038;BME280;23843;51.320;12.340;2023-05-09T05:02:43;100876.06;;;12.85;64.37
38038;BME280;23843;51.320;12.340;2023-05-09T05:05:09;100880.19;;;13.07;60.76
38038;BME280;23843;51.320;12.340;2023-05-09T05:07:34;100871.44;;;13.37;57.92
38038;BME280;23843;51.320;12.340;2023-05-09T05:10:00;100871.31;;;13.84;56.75
38038;BME280;23843;51.320;12.340;2023-05-09T05:12:27;100862.91;;;14.21;55.79
38038;BME280;23843;51.320;12.340;2023-05-09T05:14:52;100857.97;;;14.29;54.95
38038;BME280;23843;51.320;12.340;2023-05-09T05:17:18;100859.44;;;14.63;55.19
38038;BME280;23843;51.320;12.340;2023-05-09T05:19:43;100846.53;;;14.84;52.35
38038;BME280;23843;51.320;12.340;2023-05-09T05:22:09;100853.06;;;15.07;52.76
38038;BME280;23843;51.320;12.340;2023-05-09T05:24:34;100846.03;;;15.73;52.63
38038;BME280;23843;51.320;12.340;2023-05-09T05:26:59;100841.53;;;16.63;45.68
38038;BME280;23843;51.320;12.340;2023-05-09T05:29:26;100830.28;;;17.91;41.67
38038;BME280;23843;51.320;12.340;2023-05-09T05:31:52;100839.41;;;19.13;37.83
38038;BME280;23843;51.320;12.340;2023-05-09T05:34:17;100840.59;;;18.76;39.91
38038;BME280;23843;51.320;12.340;2023-05-09T05:36:43;100841.34;;;20.38;38.70
38038;BME280;23843;51.320;12.340;2023-05-09T05:39:08;100838.06;;;21.93;33.67
38038;BME280;23843;51.320;12.340;2023-05-09T05:41:36;100823.59;;;22.97;30.81
38038;BME280;23843;51.320;12.340;2023-05-09T05:44:02;100830.72;;;24.40;32.43
38038;BME280;23843;51.320;12.340;2023-05-09T05:46:29;100830.94;;;24.81;31.96
38038;BME280;23843;51.320;12.340;2023-05-09T05:48:54;100828.38;;;23.31;30.94
38038;BME280;23843;51.320;12.340;2023-05-09T05:51:20;100828.44;;;23.57;28.91
38038;BME280;23843;51.320;12.340;2023-05-09T05:53:45;100828.69;;;22.07;30.31
38038;BME280;23843;51.320;12.340;2023-05-09T05:56:11;100835.97;;;21.58;32.62
38038;BME280;23843;51.320;12.340;2023-05-09T05:58:36;100826.06;;;22.35;29.44
38038;BME280;23843;51.320;12.340;2023-05-09T06:01:02;100833.56;;;21.65;34.49
38038;BME280;23843;51.320;12.340;2023-05-09T06:03:29;100829.97;;;21.93;32.83
38038;BME280;23843;51.320;12.340;2023-05-09T06:05:54;100815.19;;;23.89;30.94
38038;BME280;23843;51.320;12.340;2023-05-09T06:08:20;100811.91;;;25.23;26.72
38038;BME280;23843;51.320;12.340;2023-05-09T06:10:46;100804.91;;;26.27;25.91
38038;BME280;23843;51.320;12.340;2023-05-09T06:13:11;100803.00;;;27.15;23.41
38038;BME280;23843;51.320;12.340;2023-05-09T06:15:37;100810.25;;;25.47;26.38
38038;BME280;23843;51.320;12.340;2023-05-09T06:18:03;100810.22;;;24.03;27.14
38038;BME280;23843;51.320;12.340;2023-05-09T06:20:30;100806.28;;;25.08;25.68
38038;BME280;23843;51.320;12.340;2023-05-09T06:22:55;100799.63;;;26.81;25.63
38038;BME280;23843;51.320;12.340;2023-05-09T06:25:21;100793.44;;;27.19;22.14
38038;BME280;23843;51.320;12.340;2023-05-09T06:27:46;100796.88;;;27.96;22.18
38038;BME280;23843;51.320;12.340;2023-05-09T06:30:12;100794.47;;;28.31;19.92
38038;BME280;23843;51.320;12.340;2023-05-09T06:32:38;100793.06;;;27.68;21.39
38038;BME280;23843;51.320;12.340;2023-05-09T06:35:04;100799.56;;;25.70;22.84
38038;BME280;23843;51.320;12.340;2023-05-09T06:37:33;100808.81;;;24.51;24.33
38038;BME280;23843;51.320;12.340;2023-05-09T06:39:58;100797.84;;;24.26;26.12
38038;BME280;23843;51.320;12.340;2023-05-09T06:42:24;100795.78;;;25.13;24.00
38038;BME280;23843;51.320;12.340;2023-05-09T06:44:49;100786.09;;;26.65;22.54
38038;BME280;23843;51.320;12.340;2023-05-09T06:47:15;100780.03;;;27.17;21.18
38038;BME280;23843;51.320;12.340;2023-05-09T06:49:40;100785.00;;;27.74;21.63
38038;BME280;23843;51.320;12.340;2023-05-09T06:52:06;100778.69;;;28.56;19.97
38038;BME280;23843;51.320;12.340;2023-05-09T06:54:33;100768.19;;;28.75;20.41
38038;BME280;23843;51.320;12.340;2023-05-09T06:56:58;100770.56;;;29.85;21.20
38038;BME280;23843;51.320;12.340;2023-05-09T06:59:24;100770.56;;;30.62;17.98
38038;BME280;23843;51.320;12.340;2023-05-09T07:01:50;100754.72;;;31.19;18.08
38038;BME280;23843;51.320;12.340;2023-05-09T07:04:15;100763.78;;;31.26;17.31
38038;BME280;23843;51.320;12.340;2023-05-09T07:06:41;100751.41;;;31.50;17.38
38038;BME280;23843;51.320;12.340;2023-05-09T07:09:06;100745.03;;;32.09;16.71
38038;BME280;23843;51.320;12.340;2023-05-09T07:11:34;100738.19;;;32.83;16.29
38038;BME280;23843;51.320;12.340;2023-05-09T07:14:00;100737.25;;;32.96;17.91
38038;BME280;23843;51.320;12.340;2023-05-09T07:16:25;100734.41;;;34.10;16.09
38038;BME280;23843;51.320;12.340;2023-05-09T07:18:51;100734.25;;;34.23;14.63
38038;BME280;23843;51.320;12.340;2023-05-09T07:21:16;100726.59;;;34.44;15.73
38038;BME280;23843;51.320;12.340;2023-05-09T07:23:42;100726.31;;;34.15;16.65
38038;BME280;23843;51.320;12.340;2023-05-09T07:26:07;100733.38;;;33.86;14.47
38038;BME280;23843;51.320;12.340;2023-05-09T07:28:34;100731.66;;;33.66;15.23
38038;BME280;23843;51.320;12.340;2023-05-09T07:30:59;100737.63;;;33.63;14.88
38038;BME280;23843;51.320;12.340;2023-05-09T07:33:25;100727.56;;;33.25;15.42
38038;BME280;23843;51.320;12.340;2023-05-09T07:35:50;100720.66;;;32.84;15.41
38038;BME280;23843;51.320;12.340;2023-05-09T07:38:16;100720.63;;;33.23;17.31
38038;BME280;23843;51.320;12.340;2023-05-09T07:40:41;100725.09;;;33.67;16.57
38038;BME280;23843;51.320;12.340;2023-05-09T07:43:07;100710.91;;;34.63;15.20
38038;BME280;23843;51.320;12.340;2023-05-09T07:45:34;100713.66;;;34.93;15.15
38038;BME280;23843;51.320;12.340;2023-05-09T07:47:59;100706.38;;;34.20;14.85
38038;BME280;23843;51.320;12.340;2023-05-09T07:50:25;100707.44;;;34.00;15.12
38038;BME280;23843;51.320;12.340;2023-05-09T07:52:50;100697.81;;;34.28;14.54
38038;BME280;23843;51.320;12.340;2023-05-09T07:55:16;100699.72;;;34.76;15.22
38038;BME280;23843;51.320;12.340;2023-05-09T07:57:41;100699.09;;;34.74;13.92
38038;BME280;23843;51.320;12.340;2023-05-09T08:00:08;100693.13;;;35.43;15.87
38038;BME280;23843;51.320;12.340;2023-05-09T08:02:35;100692.84;;;35.09;14.42
38038;BME280;23843;51.320;12.340;2023-05-09T08:05:00;100687.91;;;34.08;14.57
38038;BME280;23843;51.320;12.340;2023-05-09T08:07:26;100678.84;;;34.38;14.49
38038;BME280;23843;51.320;12.340;2023-05-09T08:09:51;100679.41;;;33.73;14.55
38038;BME280;23843;51.320;12.340;2023-05-09T08:12:17;100676.16;;;33.14;14.62
38038;BME280;23843;51.320;12.340;2023-05-09T08:14:42;100678.03;;;32.82;16.75
38038;BME280;23843;51.320;12.340;2023-05-09T08:17:08;100669.28;;;33.23;17.17
38038;BME280;23843;51.320;12.340;2023-05-09T08:19:34;100661.63;;;34.13;14.60
38038;BME280;23843;51.320;12.340;2023-05-09T08:22:00;100665.41;;;34.30;15.72
38038;BME280;23843;51.320;12.340;2023-05-09T08:24:26;100647.03;;;34.61;15.17
38038;BME280;23843;51.320;12.340;2023-05-09T08:26:51;100643.81;;;34.64;14.09
38038;BME280;23843;51.320;12.340;2023-05-09T08:29:16;100644.00;;;34.92;15.79
38038;BME280;23843;51.320;12.340;2023-05-09T08:31:42;100641.41;;;34.37;14.08
38038;BME280;23843;51.320;12.340;2023-05-09T08:34:08;100638.69;;;34.19;14.75
38038;BME280;23843;51.320;12.340;2023-05-09T08:36:34;100642.09;;;33.40;14.82
38038;BME280;23843;51.320;12.340;2023-05-09T08:39:00;100633.13;;;34.07;16.12
38038;BME280;23843;51.320;12.340;2023-05-09T08:41:25;100634.25;;;34.66;14.02
38038;BME280;23843;51.320;12.340;2023-05-09T08:43:52;100635.94;;;34.79;15.90
38038;BME280;23843;51.320;12.340;2023-05-09T08:46:22;100627.31;;;34.45;15.32
38038;BME280;23843;51.320;12.340;2023-05-09T08:48:49;100629.00;;;34.16;15.00
38038;BME280;23843;51.320;12.340;2023-05-09T08:51:15;100620.19;;;34.56;14.99
38038;BME280;23843;51.320;12.340;2023-05-09T08:53:42;100623.50;;;34.46;15.25
38038;BME280;23843;51.320;12.340;2023-05-09T08:56:08;100628.88;;;33.12;16.09
38038;BME280;23843;51.320;12.340;2023-05-09T08:58:34;100619.75;;;32.87;15.35
38038;BME280;23843;51.320;12.340;2023-05-09T09:01:01;100624.53;;;33.23;14.61
38038;BME280;23843;51.320;12.340;2023-05-09T09:03:27;100625.97;;;32.37;15.16
38038;BME280;23843;51.320;12.340;2023-05-09T09:05:53;100616.56;;;32.58;15.62
38038;BME280;23843;51.320;12.340;2023-05-09T09:08:18;100614.69;;;32.58;16.05
38038;BME280;23843;51.320;12.340;2023-05-09T09:10:46;100605.59;;;32.58;15.68
38038;BME280;23843;51.320;12.340;2023-05-09T09:13:12;100604.91;;;32.94;15.62
38038;BME280;23843;51.320;12.340;2023-05-09T09:15:39;100604.94;;;33.63;15.62
38038;BME280;23843;51.320;12.340;2023-05-09T09:18:06;100602.56;;;32.41;16.32
38038;BME280;23843;51.320;12.340;2023-05-09T09:20:32;100614.53;;;33.29;16.40
38038;BME280;23843;51.320;12.340;2023-05-09T09:22:59;100602.06;;;33.51;16.09
38038;BME280;23843;51.320;12.340;2023-05-09T09:25:25;100602.66;;;32.84;15.96
38038;BME280;23843;51.320;12.340;2023-05-09T09:27:51;100603.03;;;32.95;16.66
38038;BME280;23843;51.320;12.340;2023-05-09T09:30:17;100593.31;;;33.61;14.77
38038;BME280;23843;51.320;12.340;2023-05-09T09:32:43;100590.16;;;32.32;15.67
38038;BME280;23843;51.320;12.340;2023-05-09T09:35:09;100595.19;;;30.91;16.28
38038;BME280;23843;51.320;12.340;2023-05-09T09:37:37;100576.00;;;31.31;17.19
38038;BME280;23843;51.320;12.340;2023-05-09T09:40:03;100578.31;;;32.95;16.14
38038;BME280;23843;51.320;12.340;2023-05-09T09:42:39;100571.38;;;33.54;16.12
38038;BME280;23843;51.320;12.340;2023-05-09T09:45:10;100569.59;;;33.04;15.71
38038;BME280;23843;51.320;12.340;2023-05-09T09:47:36;100559.56;;;31.31;16.56
38038;BME280;23843;51.320;12.340;2023-05-09T09:50:09;100574.72;;;31.34;16.75
38038;BME280;23843;51.320;12.340;2023-05-09T09:52:34;100562.91;;;31.47;17.52
38038;BME280;23843;51.320;12.340;2023-05-09T09:55:00;100563.56;;;29.74;17.72
38038;BME280;23843;51.320;12.340;2023-05-09T09:57:43;100566.44;;;28.75;18.99
38038;BME280;23843;51.320;12.340;2023-05-09T10:00:11;100559.00;;;27.83;20.38
38038;BME280;23843;51.320;12.340;2023-05-09T10:02:46;100574.31;;;26.86;20.88
38038;BME280;23843;51.320;12.340;2023-05-09T10:05:17;100563.94;;;25.81;21.65
38038;BME280;23843;51.320;12.340;2023-05-09T10:07:43;100565.03;;;24.92;23.08
38038;BME280;23843;51.320;12.340;2023-05-09T10:10:08;100550.97;;;24.14;23.85
38038;BME280;23843;51.320;12.340;2023-05-09T10:12:35;100562.66;;;23.38;25.09
38038;BME280;23843;51.320;12.340;2023-05-09T10:15:03;100541.66;;;23.24;25.58
38038;BME280;23843;51.320;12.340;2023-05-09T10:17:32;100540.88;;;23.40;25.91
38038;BME280;23843;51.320;12.340;2023-05-09T10:20:01;100538.19;;;23.48;25.55
38038;BME280;23843;51.320;12.340;2023-05-09T10:22:28;100531.50;;;23.26;25.98
38038;BME280;23843;51.320;12.340;2023-05-09T10:25:00;100527.88;;;22.65;26.54
38038;BME280;23843;51.320;12.340;2023-05-09T10:27:26;100534.31;;;22.28;26.26
38038;BME280;23843;51.320;12.340;2023-05-09T10:30:00;100530.69;;;22.19;27.92
38038;BME280;23843;51.320;12.340;2023-05-09T10:32:35;100525.31;;;21.92;28.42
38038;BME280;23843;51.320;12.340;2023-05-09T10:35:05;100523.84;;;21.79;28.61
38038;BME280;23843;51.320;12.340;2023-05-09T10:37:32;100514.75;;;21.53;28.37
38038;BME280;23843;51.320;12.340;2023-05-09T10:39:59;100508.13;;;21.47;28.50
38038;BME280;23843;51.320;12.340;2023-05-09T10:42:25;100513.38;;;21.49;28.89
38038;BME280;23843;51.320;12.340;2023-05-09T10:44:52;100499.59;;;21.24;29.90
38038;BME280;23843;51.320;12.340;2023-05-09T10:47:18;100503.47;;;21.12;29.83
38038;BME280;23843;51.320;12.340;2023-05-09T10:49:46;100498.22;;;21.10;30.62
38038;BME280;23843;51.320;12.340;2023-05-09T10:52:13;100492.91;;;20.81;30.05
38038;BME280;23843;51.320;12.340;2023-05-09T10:54:38;100504.44;;;20.64;31.25
38038;BME280;23843;51.320;12.340;2023-05-09T10:57:08;100484.03;;;20.51;30.49
38038;BME280;23843;51.320;12.340;2023-05-09T10:59:35;100489.00;;;20.27;31.59
38038;BME280;23843;51.320;12.340;2023-05-09T11:02:01;100473.59;;;20.29;32.31
38038;BME280;23843;51.320;12.340;2023-05-09T11:04:28;100465.06;;;20.24;32.63
38038;BME280;23843;51.320;12.340;2023-05-09T11:06:55;100481.34;;;20.42;32.19
38038;BME280;23843;51.320;12.340;2023-05-09T11:09:22;100461.50;;;20.52;31.09
38038;BME280;23843;51.320;12.340;2023-05-09T11:11:51;100472.44;;;20.41;31.90
38038;BME280;23843;51.320;12.340;2023-05-09T11:14:28;100464.22;;;20.04;32.53
38038;BME280;23843;51.320;12.340;2023-05-09T11:16:57;100466.66;;;20.17;31.29
38038;BME280;23843;51.320;12.340;2023-05-09T11:19:32;100443.28;;;19.88;33.21
38038;BME280;23843;51.320;12.340;2023-05-09T11:22:00;100439.75;;;19.87;33.27
38038;BME280;23843;51.320;12.340;2023-05-09T11:24:26;100447.66;;;19.79;33.23
38038;BME280;23843;51.320;12.340;2023-05-09T11:26:51;100442.81;;;19.63;33.22
38038;BME280;23843;51.320;12.340;2023-05-09T11:29:17;100432.19;;;19.62;33.19
38038;BME280;23843;51.320;12.340;2023-05-09T11:32:03;100425.44;;;19.77;32.51
38038;BME280;23843;51.320;12.340;2023-05-09T11:34:29;100429.69;;;19.89;32.64
38038;BME280;23843;51.320;12.340;2023-05-09T11:37:06;100433.09;;;19.82;33.17
38038;BME280;23843;51.320;12.340;2023-05-09T11:39:33;100413.84;;;19.77;33.32
38038;BME280;23843;51.320;12.340;2023-05-09T11:42:00;100406.22;;;19.82;33.09
38038;BME280;23843;51.320;12.340;2023-05-09T11:44:26;100410.75;;;19.72;33.17
38038;BME280;23843;51.320;12.340;2023-05-09T11:46:52;100404.34;;;19.73;33.05
38038;BME280;23843;51.320;12.340;2023-05-09T11:49:18;100401.97;;;19.70;33.55
38038;BME280;23843;51.320;12.340;2023-05-09T11:51:43;100397.84;;;19.65;32.04
38038;BME280;23843;51.320;12.340;2023-05-09T11:54:10;100396.25;;;19.63;32.66
38038;BME280;23843;51.320;12.340;2023-05-09T11:56:37;100381.84;;;19.54;32.88
38038;BME280;23843;51.320;12.340;2023-05-09T11:59:04;100390.38;;;19.69;32.92
38038;BME280;23843;51.320;12.340;2023-05-09T12:01:30;100381.31;;;19.80;32.61
38038;BME280;23843;51.320;12.340;2023-05-09T12:03:56;100381.56;;;19.67;32.64
38038;BME280;23843;51.320;12.340;2023-05-09T12:06:22;100376.34;;;19.65;32.48
38038;BME280;23843;51.320;12.340;2023-05-09T12:08:47;100363.75;;;19.66;32.08
38038;BME280;23843;51.320;12.340;2023-05-09T12:11:14;100360.47;;;19.53;32.50
38038;BME280;23843;51.320;12.340;2023-05-09T12:13:46;100356.09;;;19.52;33.02
38038;BME280;23843;51.320;12.340;2023-05-09T12:16:12;100355.69;;;19.56;32.94
38038;BME280;23843;51.320;12.340;2023-05-09T12:18:43;100339.69;;;19.55;32.65
38038;BME280;23843;51.320;12.340;2023-05-09T12:21:08;100339.13;;;19.61;33.36
38038;BME280;23843;51.320;12.340;2023-05-09T12:23:34;100369.16;;;19.76;32.51
38038;BME280;23843;51.320;12.340;2023-05-09T12:25:59;100350.72;;;19.61;31.73
38038;BME280;23843;51.320;12.340;2023-05-09T12:28:26;100327.38;;;19.52;32.53
38038;BME280;23843;51.320;12.340;2023-05-09T12:30:53;100332.91;;;19.60;32.30
38038;BME280;23843;51.320;12.340;2023-05-09T12:33:19;100328.53;;;19.59;33.04
38038;BME280;23843;51.320;12.340;2023-05-09T12:35:45;100330.78;;;19.54;33.54
38038;BME280;23843;51.320;12.340;2023-05-09T12:38:13;100313.25;;;19.50;33.73
38038;BME280;23843;51.320;12.340;2023-05-09T12:40:38;100321.19;;;19.52;32.51
38038;BME280;23843;51.320;12.340;2023-05-09T12:43:04;100310.84;;;19.57;32.70
38038;BME280;23843;51.320;12.340;2023-05-09T12:45:32;100324.84;;;19.51;33.03
38038;BME280;23843;51.320;12.340;2023-05-09T12:47:57;100306.47;;;19.46;32.70